Airfield :
LOGIN :

Register | Disclaimer

   EN    FR    IT 

 










Legend :    VFR   Marginal VFR   IFR   Intensive IFR   Very Intensive IFR
Visi :
Ceiling :
>= 8 km
>= 3000ft
5 to 8 km
1000 to 3000 ft
1500m to 5 km
500 to 1000 ft
800 to 1500m
200 to 500 ft
< 800m
< 200 ft
Symbols :   Thunderstorms  Fog  Heavy snow  Heavy precipitations  Wind > 20 kt
SIGMETs :     Misc.  Thunderstorms  Icing  Turbulence  Mountain Waves  Volcanic Ashes






- Airport Elevation : 665 ft
- IATA code : NOC


EIKN - Connaught / Knock- Ireland West

CURRENT METAR :
  • 151200Z 14005KT 110V170 9999 FEW002 BKN060 M00/M00 Q0985 NOSIG

EXPIRED METARs :
  • 151130Z 14005KT 9999 FEW027 BKN060 BKN070 00/M00 Q0986 TEMPO 2000 BKN030
  • 151100Z 15004KT 100V190 9999 -SHSN FEW005 BKN028 BKN070 M00/M01 Q0986 TEMPO 2000 BKN030
  • 151030Z 15005KT 130V190 9999 FEW010 SCT022 BKN045 M00/M01 Q0986 TEMPO 2000 BKN030
  • 151000Z 15004KT 120V180 9999 FEW002 SCT060 BKN130 M01/M01 Q0986 TEMPO 2000 BKN002
  • 150930Z 15004KT 9999 FEW010 BKN130 BKN150 M01/M01 Q0986 TEMPO 2000 BKN030

TAF TAF EIKN
Valid from the 15 at 12:00 until the 16 at 12:00 UTC


151100Z 1512/1612 14008KT 9999 FEW015 BKN030
TEMPO 1512/1518 3000 SHRASN BKN005 BKN018CB
PROB40 1518/1604 0300 -SHSN FZFG BKN001
BECMG 1603/1605 23010KT



MET'MAP, your aeronautical weather chart ! - Copyright ORBIFLY December 2007 - Disclaimer

ORBIFLY MET'MAP TEAM :

Programming & Development : Alexandra Zaïnal
Concept & original design : Baudouin d'Aumeries
Assistance for programming : Marc-Olivier Méhu
Technical & hardware support : Manuel Goepfert

Contact : metmap@orbifly.com




SOURCES & CREDITS :

   NOAA